Date,TemperatureHighF,TemperatureAvgF,TemperatureLowF,DewpointHighF,DewpointAvgF,DewpointLowF,HumidityHigh,HumidityAvg,HumidityLow,PressureMaxIn,PressureMinIn,WindSpeedMaxMPH,WindSpeedAvgMPH,GustSpeedMaxMPH,PrecipitationSumIn
2013-7-1,80.5,69.8,63.8,70.2,66.2,62.9,98,89,65,29.90,29.76,5,1,8,0.27
2013-7-2,83.6,70.7,62.4,71.4,66.8,62.1,99,89,60,30.03,29.89,5,1,11,0.54
2013-7-3,80.0,72.6,67.4,72.8,69.7,66.8,99,91,77,30.12,30.01,3,0,7,0.01
2013-7-4,74.6,69.7,65.8,72.1,68.1,64.9,98,95,90,30.15,30.06,5,1,9,1.10
2013-7-5,80.2,71.1,65.9,75.0,69.1,65.2,99,94,78,30.14,30.07,5,1,9,0.60
2013-7-6,76.2,70.7,67.5,72.5,69.2,66.7,99,95,84,30.14,30.06,4,1,8,0.33
2013-7-7,83.4,72.8,66.2,74.0,68.0,65.7,99,87,59,30.12,30.03,3,1,6,0.25
2013-7-8,87.7,77.0,66.0,75.1,70.1,65.3,99,81,53,30.15,30.04,3,1,7,0.01
2013-7-9,90.2,80.1,72.3,77.2,73.1,70.2,94,80,55,30.10,29.99,4,1,9,0.00
2013-7-10,90.8,77.6,69.7,79.4,73.2,68.7,99,87,63,30.01,29.83,9,1,19,0.40
2013-7-11,84.6,73.3,68.3,73.3,69.5,66.2,99,89,62,29.97,29.89,6,1,11,0.53
2013-7-12,79.0,70.2,60.7,66.5,61.1,58.1,94,74,53,30.05,29.96,5,2,11,0.01
2013-7-13,81.5,70.7,61.2,72.3,65.1,59.3,94,83,69,30.10,30.00,7,2,10,0.01
2013-7-14,87.8,77.7,69.5,77.6,71.7,67.0,92,82,64,30.20,30.08,5,2,7,0.01
2013-7-15,90.2,79.8,68.3,74.0,70.7,66.7,96,75,54,30.28,30.20,4,1,7,0.00
2013-7-16,92.3,80.8,68.9,76.2,71.9,68.0,98,77,50,30.31,30.22,3,0,5,0.00
2013-7-17,89.8,80.0,71.6,80.0,74.6,70.1,97,85,61,30.28,30.15,4,0,8,0.06
2013-7-18,93.3,81.5,73.3,79.1,74.8,68.5,99,82,55,30.18,30.01,5,0,10,0.01
2013-7-19,90.2,79.2,71.4,77.6,73.7,69.8,95,84,63,30.05,29.91,3,1,8,0.00
2013-7-20,89.5,80.5,71.8,76.8,73.4,70.0,98,80,58,29.95,29.84,5,1,9,0.00
2013-7-21,85.2,76.8,71.1,75.6,71.9,69.6,97,86,62,29.95,29.85,4,1,7,0.16
2013-7-22,78.0,73.3,71.2,74.3,71.5,69.7,98,94,85,29.92,29.76,3,1,7,1.84
2013-7-23,87.2,76.2,68.8,75.4,71.3,64.5,99,86,60,29.84,29.73,6,1,10,0.36
2013-7-24,78.7,71.2,65.4,71.2,65.6,61.0,96,83,64,29.93,29.76,4,1,8,0.00
2013-7-25,77.3,68.4,59.5,63.6,60.1,57.8,94,76,55,30.07,29.93,5,2,8,0.00
2013-7-26,82.8,69.6,56.3,66.6,61.7,55.7,98,78,51,30.08,29.97,3,1,7,0.00
2013-7-27,77.6,69.7,65.5,68.8,66.1,63.4,96,89,71,29.98,29.85,4,0,9,0.04
2013-7-28,75.3,65.5,57.4,65.0,56.0,50.5,97,74,46,30.08,29.89,5,1,8,0.00
2013-7-29,80.5,67.5,54.9,64.1,58.5,53.6,97,75,48,30.18,30.07,3,0,7,0.00
2013-7-30,79.9,69.7,60.1,68.8,63.0,58.6,96,81,56,30.22,30.12,2,0,5,0.00
2013-7-31,77.0,69.7,64.6,69.9,66.9,63.7,98,91,76,30.14,29.94,4,1,8,0.08